createdAt,value
2022-09-12T00:01:20.512Z,10.20
2022-09-12T00:03:52.999Z,10.03
2022-09-12T00:06:23.438Z,9.07
2022-09-12T00:08:51.933Z,9.80
2022-09-12T00:11:20.305Z,9.30
2022-09-12T00:13:48.892Z,9.10
2022-09-12T00:16:18.600Z,9.87
2022-09-12T00:18:47.717Z,9.57
2022-09-12T00:21:18.872Z,8.60
2022-09-12T00:23:48.316Z,8.83
2022-09-12T00:26:17.727Z,8.60
2022-09-12T00:28:46.420Z,9.40
2022-09-12T00:31:16.665Z,9.20
2022-09-12T00:33:45.262Z,8.77
2022-09-12T00:36:16.716Z,8.60
2022-09-12T00:38:45.068Z,8.40
2022-09-12T00:41:18.073Z,9.67
2022-09-12T00:43:47.797Z,8.50
2022-09-12T00:46:25.258Z,9.27
2022-09-12T00:48:57.814Z,9.37
2022-09-12T00:51:28.135Z,9.50
2022-09-12T00:53:59.442Z,9.40
2022-09-12T00:56:29.017Z,10.67
2022-09-12T00:59:01.003Z,9.67
2022-09-12T01:01:32.385Z,9.77
2022-09-12T01:04:01.354Z,9.80
2022-09-12T01:06:36.581Z,9.10
2022-09-12T01:09:05.955Z,9.07
2022-09-12T01:11:38.022Z,9.87
2022-09-12T01:14:06.287Z,9.10
2022-09-12T01:16:36.812Z,9.10
2022-09-12T01:19:22.115Z,9.57
2022-09-12T01:22:04.896Z,9.43
2022-09-12T01:24:51.650Z,8.97
2022-09-12T01:27:43.944Z,8.97
2022-09-12T01:30:42.934Z,9.23
2022-09-12T01:33:35.685Z,9.20
2022-09-12T01:36:33.584Z,9.23
2022-09-12T01:39:04.310Z,8.87
2022-09-12T01:41:41.295Z,8.50
2022-09-12T01:44:19.915Z,8.73
2022-09-12T01:46:55.745Z,8.83
2022-09-12T01:49:26.395Z,9.03
2022-09-12T01:52:01.115Z,8.80
2022-09-12T01:54:36.740Z,8.50
2022-09-12T01:57:12.142Z,10.27
2022-09-12T01:59:44.907Z,9.00
2022-09-12T02:02:17.959Z,9.50
2022-09-12T02:04:52.181Z,9.17
2022-09-12T02:07:23.757Z,8.90
2022-09-12T02:09:56.097Z,8.43
2022-09-12T02:12:29.891Z,8.90
2022-09-12T02:15:03.221Z,8.23
2022-09-12T02:17:36.853Z,8.50
2022-09-12T02:20:14.592Z,8.50
2022-09-12T02:22:50.766Z,8.17
2022-09-12T02:25:21.310Z,8.80
2022-09-12T02:27:51.799Z,8.57
2022-09-12T02:30:20.461Z,9.83
2022-09-12T02:32:59.802Z,8.30
2022-09-12T02:35:35.956Z,8.87
2022-09-12T02:38:08.296Z,8.20
2022-09-12T02:40:36.995Z,8.80
2022-09-12T02:43:07.086Z,9.23
2022-09-12T02:45:36.628Z,8.40
2022-09-12T02:48:10.453Z,8.27
2022-09-12T02:50:40.524Z,7.90
2022-09-12T02:53:10.643Z,12.63
2022-09-12T02:55:41.154Z,8.57
2022-09-12T02:58:13.038Z,9.10
2022-09-12T03:00:49.169Z,8.70
2022-09-12T03:03:39.158Z,8.93
2022-09-12T03:06:18.318Z,8.50
2022-09-12T03:08:58.177Z,8.10
2022-09-12T03:11:43.102Z,8.20
2022-09-12T03:14:23.342Z,8.80
2022-09-12T03:16:59.840Z,9.23
2022-09-12T03:19:37.793Z,8.80
2022-09-12T03:22:14.576Z,8.80
2022-09-12T03:24:52.817Z,8.30
2022-09-12T03:27:25.928Z,8.73
2022-09-12T03:29:56.308Z,8.00
2022-09-12T03:32:42.675Z,8.97
2022-09-12T03:35:13.277Z,8.30
2022-09-12T03:37:41.956Z,8.20
2022-09-12T03:40:13.253Z,8.17
2022-09-12T03:42:41.353Z,9.43
2022-09-12T03:45:11.051Z,8.83
2022-09-12T03:47:40.969Z,8.80
2022-09-12T03:50:09.546Z,8.33
2022-09-12T03:52:38.912Z,8.80
2022-09-12T03:55:07.990Z,9.13
2022-09-12T03:57:36.063Z,9.20
2022-09-12T04:00:04.959Z,9.27
2022-09-12T04:02:32.966Z,8.23
2022-09-12T04:05:01.094Z,8.80
2022-09-12T04:07:29.365Z,9.17
2022-09-12T04:09:58.710Z,7.97
2022-09-12T04:12:26.698Z,7.90
2022-09-12T04:14:54.748Z,8.77
2022-09-12T04:17:22.817Z,7.87
2022-09-12T04:19:50.799Z,7.80
2022-09-12T04:22:18.814Z,7.47
2022-09-12T04:24:46.798Z,8.93
2022-09-12T04:27:16.175Z,7.93
2022-09-12T04:29:44.277Z,8.00
2022-09-12T04:32:12.301Z,7.70
2022-09-12T04:34:40.361Z,8.13
2022-09-12T04:37:08.428Z,8.10
2022-09-12T04:39:36.618Z,7.83
2022-09-12T04:42:04.832Z,8.10
2022-09-12T04:44:34.341Z,9.20
2022-09-12T04:47:03.303Z,8.27
2022-09-12T04:49:31.319Z,8.83
2022-09-12T04:51:59.331Z,7.73
2022-09-12T04:54:27.389Z,7.27
2022-09-12T04:56:55.957Z,8.40
2022-09-12T04:59:24.499Z,8.43
2022-09-12T05:01:54.262Z,8.27
2022-09-12T05:04:22.794Z,8.40
2022-09-12T05:06:50.799Z,9.03
2022-09-12T05:09:18.843Z,8.03
2022-09-12T05:12:04.647Z,9.33
2022-09-12T05:14:33.878Z,8.70
2022-09-12T05:17:03.764Z,8.30
2022-09-12T05:19:32.930Z,8.70
2022-09-12T05:22:01.058Z,7.87
2022-09-12T05:24:29.035Z,8.77
2022-09-12T05:26:57.033Z,8.77
2022-09-12T05:29:25.619Z,20.43
2022-09-12T05:31:53.842Z,8.70
2022-09-12T05:34:23.582Z,9.00
2022-09-12T05:36:51.582Z,9.50
2022-09-12T05:39:19.551Z,10.00
2022-09-12T05:41:47.744Z,9.30
2022-09-12T05:44:16.412Z,9.80
2022-09-12T05:46:46.803Z,9.40
2022-09-12T05:49:15.532Z,9.30
2022-09-12T05:51:46.411Z,10.33
2022-09-12T05:54:16.953Z,10.50
2022-09-12T05:56:46.039Z,11.13
2022-09-12T05:59:15.672Z,10.30
2022-09-12T06:01:44.500Z,10.23
2022-09-12T06:04:13.198Z,10.07
2022-09-12T06:06:43.487Z,12.07
2022-09-12T06:09:13.995Z,11.23
2022-09-12T06:11:42.995Z,11.47
2022-09-12T06:14:12.506Z,11.73
2022-09-12T06:16:41.210Z,12.87
2022-09-12T06:19:15.343Z,12.00
2022-09-12T06:21:43.692Z,12.10
2022-09-12T06:24:13.327Z,12.77
2022-09-12T06:26:41.345Z,12.80
2022-09-12T06:29:11.433Z,13.33
2022-09-12T06:31:41.339Z,13.57
2022-09-12T06:34:11.484Z,13.47
2022-09-12T06:36:41.978Z,14.07
2022-09-12T06:39:14.270Z,11.93
2022-09-12T06:41:44.170Z,14.23
2022-09-12T06:44:15.608Z,13.90
2022-09-12T06:46:44.191Z,14.33
2022-09-12T06:49:12.709Z,14.67
2022-09-12T06:51:41.944Z,14.27
2022-09-12T06:54:11.007Z,14.77
2022-09-12T06:56:40.410Z,13.57
2022-09-12T06:59:08.586Z,14.27
2022-09-12T07:01:36.666Z,14.83
2022-09-12T07:04:05.938Z,13.20
2022-09-12T07:06:38.364Z,15.93
2022-09-12T07:09:08.990Z,14.57
2022-09-12T07:11:39.171Z,13.70
2022-09-12T07:14:10.994Z,15.63
2022-09-12T07:16:39.132Z,14.83
2022-09-12T07:19:09.116Z,15.37
2022-09-12T07:21:40.220Z,13.80
2022-09-12T07:24:09.886Z,13.87
2022-09-12T07:26:38.678Z,12.00
2022-09-12T07:29:34.759Z,12.70
2022-09-12T07:31:57.648Z,12.27
2022-09-12T07:34:25.787Z,12.33
2022-09-12T07:36:53.863Z,12.03
2022-09-12T07:39:22.185Z,12.67
2022-09-12T07:41:50.371Z,12.20
2022-09-12T07:44:19.956Z,11.90
2022-09-12T07:46:48.091Z,11.00
2022-09-12T07:49:16.244Z,12.77
2022-09-12T07:51:45.640Z,11.87
2022-09-12T07:54:13.812Z,11.00
2022-09-12T07:56:42.054Z,10.33
2022-09-12T07:59:10.526Z,9.40
2022-09-12T08:01:41.616Z,9.40
2022-09-12T08:04:09.915Z,9.00
2022-09-12T08:06:38.037Z,9.73
2022-09-12T08:09:07.896Z,9.03
2022-09-12T08:11:36.352Z,7.97
2022-09-12T08:14:05.818Z,8.60
2022-09-12T08:16:35.576Z,8.00
2022-09-12T08:19:05.534Z,8.00
2022-09-12T08:21:34.762Z,7.50
2022-09-12T08:24:04.773Z,7.20
2022-09-12T08:26:34.549Z,6.90
2022-09-12T08:29:04.153Z,7.43
2022-09-12T08:31:36.400Z,7.80
2022-09-12T08:34:07.195Z,8.03
2022-09-12T08:36:35.866Z,8.17
2022-09-12T08:39:06.306Z,7.57
2022-09-12T08:41:37.645Z,7.53
2022-09-12T08:44:36.163Z,7.37
2022-09-12T08:47:22.367Z,6.93
2022-09-12T08:50:03.843Z,7.30
2022-09-12T08:52:37.845Z,7.17
2022-09-12T08:55:13.770Z,7.20
2022-09-12T08:57:42.001Z,7.57
2022-09-12T09:00:15.807Z,7.10
2022-09-12T09:03:26.965Z,6.80
2022-09-12T09:06:04.148Z,5.93
2022-09-12T09:08:51.360Z,6.53
2022-09-12T09:11:31.491Z,6.47
2022-09-12T09:14:29.090Z,6.43
2022-09-12T09:16:58.107Z,6.27
2022-09-12T09:19:32.584Z,5.80
2022-09-12T09:22:06.231Z,5.83
2022-09-12T09:24:39.139Z,5.87
2022-09-12T09:27:36.927Z,5.43
2022-09-12T09:30:03.719Z,5.60
2022-09-12T09:32:36.589Z,5.30
2022-09-12T09:35:13.186Z,5.63
2022-09-12T09:37:45.328Z,4.90
2022-09-12T09:40:23.413Z,5.10
2022-09-12T09:42:57.958Z,5.43
2022-09-12T09:45:29.128Z,4.70
2022-09-12T09:48:01.602Z,4.93
2022-09-12T09:50:30.517Z,4.50
2022-09-12T09:53:02.333Z,4.73
2022-09-12T09:55:38.425Z,4.47
2022-09-12T09:58:06.642Z,4.60
2022-09-12T10:00:37.120Z,4.70
2022-09-12T10:03:29.836Z,5.00
2022-09-12T10:06:01.613Z,4.63
2022-09-12T10:08:32.905Z,4.47
2022-09-12T10:11:03.809Z,4.10
2022-09-12T10:13:40.569Z,3.73
2022-09-12T10:16:20.568Z,3.67
2022-09-12T10:18:49.376Z,3.80
2022-09-12T10:21:28.100Z,4.07
2022-09-12T10:24:03.624Z,3.80
2022-09-12T10:26:38.592Z,3.30
2022-09-12T10:29:16.101Z,2.77
2022-09-12T10:31:48.329Z,3.20
2022-09-12T10:34:31.015Z,3.13
2022-09-12T10:37:06.825Z,2.70
2022-09-12T10:39:38.694Z,2.73
2022-09-12T10:42:07.313Z,2.50
2022-09-12T10:44:36.441Z,2.77
2022-09-12T10:47:24.327Z,2.50
2022-09-12T10:49:52.389Z,3.60
2022-09-12T10:52:24.288Z,3.20
2022-09-12T10:54:54.242Z,2.70
2022-09-12T10:57:52.029Z,2.43
2022-09-12T11:00:27.569Z,2.40
2022-09-12T11:03:16.103Z,2.40
2022-09-12T11:05:57.463Z,2.50
2022-09-12T11:08:59.405Z,2.30
2022-09-12T11:11:57.268Z,2.20
2022-09-12T11:14:35.600Z,2.70
2022-09-12T11:17:13.749Z,2.73
2022-09-12T11:20:04.093Z,2.63
2022-09-12T11:22:43.353Z,2.40
2022-09-12T11:25:31.336Z,1.93
2022-09-12T11:28:17.622Z,2.53
2022-09-12T11:30:59.686Z,2.30
2022-09-12T11:33:43.153Z,2.20
2022-09-12T11:36:24.419Z,2.30
2022-09-12T11:38:57.230Z,2.47
2022-09-12T11:41:29.442Z,2.17
2022-09-12T11:44:04.062Z,2.10
2022-09-12T11:46:37.232Z,2.40
2022-09-12T11:49:13.317Z,2.00
2022-09-12T11:51:47.438Z,2.00
2022-09-12T11:54:22.780Z,2.83
2022-09-12T11:56:56.743Z,2.50
2022-09-12T11:59:34.848Z,1.90
2022-09-12T12:02:05.258Z,2.10
2022-09-12T12:04:40.700Z,2.03
2022-09-12T12:07:11.610Z,2.10
2022-09-12T12:09:48.104Z,2.20
2022-09-12T12:12:22.152Z,2.00
2022-09-12T12:14:55.187Z,1.90
2022-09-12T12:17:25.278Z,2.20
2022-09-12T12:20:04.279Z,1.83
2022-09-12T12:22:34.915Z,2.03
2022-09-12T12:25:29.446Z,2.00
2022-09-12T12:28:01.717Z,2.10
2022-09-12T12:31:03.153Z,2.30
2022-09-12T12:33:55.207Z,2.20
2022-09-12T12:36:50.226Z,2.73
2022-09-12T12:40:04.810Z,2.30
2022-09-12T12:43:04.608Z,2.20
2022-09-12T12:46:03.573Z,1.80
2022-09-12T12:48:56.619Z,1.90
2022-09-12T12:51:37.942Z,2.27
2022-09-12T12:54:27.215Z,2.20
2022-09-12T12:57:07.468Z,2.03
2022-09-12T12:59:35.714Z,2.20
2022-09-12T13:02:05.976Z,1.90
2022-09-12T13:04:35.078Z,1.87
2022-09-12T13:07:08.476Z,1.90
2022-09-12T13:09:44.320Z,2.27
2022-09-12T13:12:19.702Z,1.80
2022-09-12T13:15:26.004Z,1.70
2022-09-12T13:18:00.266Z,2.03
2022-09-12T13:20:32.429Z,1.67
2022-09-12T13:23:00.489Z,1.83
2022-09-12T13:25:30.940Z,2.00
2022-09-12T13:28:08.258Z,2.40
2022-09-12T13:30:38.640Z,2.20
2022-09-12T13:33:17.606Z,1.77
2022-09-12T13:36:06.837Z,1.90
2022-09-12T13:38:43.502Z,1.80
2022-09-12T13:41:25.233Z,2.93
2022-09-12T13:43:53.562Z,1.70
2022-09-12T13:46:30.429Z,1.90
2022-09-12T13:49:01.469Z,2.07
2022-09-12T13:51:33.197Z,1.90
2022-09-12T13:54:06.321Z,1.70
2022-09-12T13:56:34.648Z,1.90
2022-09-12T13:59:03.714Z,1.80
2022-09-12T14:01:40.274Z,1.70
2022-09-12T14:04:35.241Z,1.87
2022-09-12T14:07:11.395Z,1.80
2022-09-12T14:09:42.059Z,1.90
2022-09-12T14:12:22.331Z,1.70
2022-09-12T14:14:52.329Z,1.43
2022-09-12T14:17:29.751Z,1.90
2022-09-12T14:20:03.856Z,1.40
2022-09-12T14:22:34.135Z,1.80
2022-09-12T14:25:02.751Z,1.70
2022-09-12T14:27:43.132Z,1.90
2022-09-12T14:30:23.902Z,1.53
2022-09-12T14:33:06.717Z,1.40
2022-09-12T14:35:39.214Z,2.00
2022-09-12T14:38:20.846Z,2.10
2022-09-12T14:40:51.768Z,2.03
2022-09-12T14:43:25.270Z,2.40
2022-09-12T14:45:55.817Z,1.87
2022-09-12T14:48:28.457Z,2.07
2022-09-12T14:50:58.159Z,1.37
2022-09-12T14:53:33.625Z,1.80
2022-09-12T14:56:09.190Z,1.70
2022-09-12T14:58:37.389Z,1.80
2022-09-12T15:01:24.517Z,1.80
2022-09-12T15:03:54.391Z,1.97
2022-09-12T15:06:28.205Z,1.77
2022-09-12T15:08:58.092Z,2.90
2022-09-12T15:11:26.111Z,1.90
2022-09-12T15:13:55.367Z,2.03
2022-09-12T15:16:23.542Z,1.90
2022-09-12T15:18:51.628Z,1.90
2022-09-12T15:21:21.353Z,1.50
2022-09-12T15:23:51.901Z,2.17
2022-09-12T15:26:21.805Z,1.80
2022-09-12T15:28:50.047Z,1.90
2022-09-12T15:31:25.694Z,4.23
2022-09-12T15:33:54.661Z,1.63
2022-09-12T15:36:24.194Z,2.00
2022-09-12T15:38:54.005Z,1.53
2022-09-12T15:41:23.435Z,1.93
2022-09-12T15:43:52.438Z,1.50
2022-09-12T15:46:21.008Z,1.97
2022-09-12T15:48:50.095Z,2.70
2022-09-12T15:51:19.670Z,1.90
2022-09-12T15:53:48.907Z,2.10
2022-09-12T15:56:20.141Z,2.47
2022-09-12T15:58:58.133Z,2.43
2022-09-12T16:01:28.393Z,2.40
2022-09-12T16:03:56.844Z,3.00
2022-09-12T16:06:24.942Z,1.87
2022-09-12T16:08:52.948Z,6.10
2022-09-12T16:11:24.702Z,2.20
2022-09-12T16:13:53.810Z,2.27
2022-09-12T16:16:22.251Z,2.40
2022-09-12T16:18:50.511Z,2.80
2022-09-12T16:21:18.929Z,2.90
2022-09-12T16:23:49.282Z,3.10
2022-09-12T16:26:18.109Z,2.50
2022-09-12T16:28:47.816Z,2.30
2022-09-12T16:31:16.009Z,2.03
2022-09-12T16:33:44.089Z,1.87
2022-09-12T16:36:13.764Z,2.30
2022-09-12T16:38:43.057Z,2.13
2022-09-12T16:41:11.714Z,2.47
2022-09-12T16:43:40.465Z,2.03
2022-09-12T16:46:11.632Z,2.00
2022-09-12T16:48:48.068Z,2.37
2022-09-12T16:51:20.972Z,1.90
2022-09-12T16:53:49.535Z,2.40
2022-09-12T16:56:17.901Z,2.00
2022-09-12T16:58:46.224Z,2.00
2022-09-12T17:01:18.419Z,2.60
2022-09-12T17:03:47.128Z,1.80
2022-09-12T17:06:17.290Z,2.57
2022-09-12T17:08:47.110Z,3.97
2022-09-12T17:11:17.202Z,1.80
2022-09-12T17:14:03.750Z,1.90
2022-09-12T17:16:35.119Z,1.90
2022-09-12T17:19:03.209Z,2.10
2022-09-12T17:21:31.248Z,1.70
2022-09-12T17:24:00.081Z,2.20
2022-09-12T17:26:28.319Z,2.00
2022-09-12T17:28:56.355Z,2.50
2022-09-12T17:31:24.514Z,2.63
2022-09-12T17:33:57.367Z,2.00
2022-09-12T17:36:26.592Z,2.43
2022-09-12T17:38:55.257Z,2.00
2022-09-12T17:41:25.016Z,2.40
2022-09-12T17:43:57.288Z,1.50
2022-09-12T17:46:27.164Z,3.60
2022-09-12T17:48:58.479Z,1.80
2022-09-12T17:51:31.089Z,2.13
2022-09-12T17:54:01.122Z,2.00
2022-09-12T17:56:30.823Z,1.50
2022-09-12T17:59:00.226Z,2.10
2022-09-12T18:01:47.019Z,2.00
2022-09-12T18:04:17.137Z,1.77
2022-09-12T18:06:48.080Z,1.70
2022-09-12T18:09:18.421Z,1.97
2022-09-12T18:11:48.095Z,1.90
2022-09-12T18:14:17.285Z,1.70
2022-09-12T18:16:45.693Z,2.20
2022-09-12T18:19:14.372Z,1.80
2022-09-12T18:21:43.748Z,1.90
2022-09-12T18:24:12.702Z,1.93
2022-09-12T18:26:40.941Z,1.70
2022-09-12T18:29:08.978Z,1.80
2022-09-12T18:31:37.316Z,2.03
2022-09-12T18:34:06.232Z,1.57
2022-09-12T18:36:34.274Z,1.60
2022-09-12T18:39:03.723Z,1.60
2022-09-12T18:41:32.267Z,1.70
2022-09-12T18:44:03.191Z,1.40
2022-09-12T18:46:32.441Z,2.47
2022-09-12T18:49:01.886Z,1.87
2022-09-12T18:51:32.920Z,1.47
2022-09-12T18:54:06.139Z,1.77
2022-09-12T18:56:37.571Z,1.60
2022-09-12T18:59:07.295Z,1.50
2022-09-12T19:01:37.435Z,1.50
2022-09-12T19:04:07.584Z,1.60
2022-09-12T19:06:37.937Z,1.50
2022-09-12T19:09:09.123Z,1.50
2022-09-12T19:11:38.543Z,1.70
2022-09-12T19:14:07.578Z,1.60
2022-09-12T19:16:36.372Z,1.90
2022-09-12T19:19:05.260Z,1.70
2022-09-12T19:21:34.815Z,1.70
2022-09-12T19:24:05.250Z,1.63
2022-09-12T19:26:35.766Z,1.73
2022-09-12T19:29:04.373Z,1.67
2022-09-12T19:31:33.467Z,1.57
2022-09-12T19:34:02.172Z,1.70
2022-09-12T19:36:44.949Z,1.70
2022-09-12T19:39:14.798Z,1.63
2022-09-12T19:41:44.437Z,2.23
2022-09-12T19:44:12.844Z,1.73
2022-09-12T19:46:41.545Z,1.80
2022-09-12T19:49:11.579Z,1.63
2022-09-12T19:51:39.940Z,2.20
2022-09-12T19:54:08.329Z,2.07
2022-09-12T19:56:36.437Z,1.80
2022-09-12T19:59:06.029Z,1.90
2022-09-12T20:01:36.892Z,1.90
2022-09-12T20:04:07.371Z,1.83
2022-09-12T20:06:35.608Z,3.63
2022-09-12T20:09:03.785Z,2.20
2022-09-12T20:11:32.003Z,2.20
2022-09-12T20:14:00.000Z,2.33
2022-09-12T20:16:30.262Z,1.80
2022-09-12T20:19:00.116Z,2.20
2022-09-12T20:21:32.826Z,2.23
2022-09-12T20:24:02.314Z,2.03
2022-09-12T20:26:30.467Z,2.07
2022-09-12T20:28:58.567Z,2.30
2022-09-12T20:31:26.807Z,3.20
2022-09-12T20:33:56.403Z,2.13
2022-09-12T20:36:24.753Z,1.70
2022-09-12T20:38:54.292Z,2.33
2022-09-12T20:41:22.731Z,2.00
2022-09-12T20:43:52.198Z,2.00
2022-09-12T20:46:22.525Z,1.80
2022-09-12T20:48:51.308Z,2.00
2022-09-12T20:51:21.711Z,2.10
2022-09-12T20:53:53.380Z,2.10
2022-09-12T20:56:21.649Z,2.23
2022-09-12T20:58:49.662Z,2.30
2022-09-12T21:01:18.210Z,2.07
2022-09-12T21:03:46.451Z,2.00
2022-09-12T21:06:17.349Z,1.90
2022-09-12T21:08:47.495Z,2.10
2022-09-12T21:11:15.880Z,2.13
2022-09-12T21:13:44.177Z,1.80
2022-09-12T21:16:14.467Z,2.37
2022-09-12T21:18:43.022Z,2.27
2022-09-12T21:21:12.463Z,2.37
2022-09-12T21:23:40.751Z,3.07
2022-09-12T21:26:10.856Z,2.10
2022-09-12T21:28:39.030Z,1.90
2022-09-12T21:31:07.415Z,2.20
2022-09-12T21:33:35.730Z,2.47
2022-09-12T21:36:04.570Z,2.00
2022-09-12T21:38:33.013Z,2.20
2022-09-12T21:41:06.537Z,2.23
2022-09-12T21:43:36.835Z,3.10
2022-09-12T21:46:05.790Z,2.13
2022-09-12T21:48:34.495Z,2.40
2022-09-12T21:51:02.923Z,2.10
2022-09-12T21:53:31.211Z,2.03
2022-09-12T21:56:02.522Z,2.00
2022-09-12T21:58:31.077Z,2.60
2022-09-12T22:01:01.374Z,3.27
2022-09-12T22:03:29.760Z,2.10
2022-09-12T22:05:58.841Z,1.83
2022-09-12T22:08:26.976Z,2.17
2022-09-12T22:10:59.470Z,1.80
2022-09-12T22:13:27.595Z,1.87
2022-09-12T22:15:55.677Z,1.87
2022-09-12T22:18:25.043Z,2.90
2022-09-12T22:21:00.517Z,1.63
2022-09-12T22:23:45.976Z,1.50
2022-09-12T22:26:14.111Z,1.63
2022-09-12T22:28:42.654Z,1.93
2022-09-12T22:31:12.120Z,4.00
2022-09-12T22:33:41.637Z,1.97
2022-09-12T22:36:10.773Z,1.80
2022-09-12T22:38:39.233Z,1.80
2022-09-12T22:41:09.699Z,1.87
2022-09-12T22:43:38.241Z,1.90
2022-09-12T22:46:08.284Z,1.60
2022-09-12T22:48:36.443Z,3.10
2022-09-12T22:51:06.270Z,1.90
2022-09-12T22:53:34.654Z,1.90
2022-09-12T22:56:03.596Z,1.60
2022-09-12T22:58:31.616Z,2.13
2022-09-12T23:00:59.659Z,2.10
2022-09-12T23:03:27.772Z,1.50
2022-09-12T23:05:55.968Z,1.77
2022-09-12T23:08:27.332Z,2.00
2022-09-12T23:11:01.949Z,1.90
2022-09-12T23:13:31.025Z,2.30
2022-09-12T23:15:59.691Z,2.00
2022-09-12T23:18:28.217Z,2.43
2022-09-12T23:21:01.154Z,2.63
2022-09-12T23:23:30.798Z,2.10
2022-09-12T23:26:06.554Z,2.10
2022-09-12T23:28:35.186Z,1.70
2022-09-12T23:31:04.189Z,2.40
2022-09-12T23:33:33.272Z,2.33
2022-09-12T23:36:02.177Z,2.00
2022-09-12T23:38:32.309Z,1.80
2022-09-12T23:41:00.795Z,2.10
2022-09-12T23:43:30.524Z,2.10
2022-09-12T23:45:59.078Z,2.20
2022-09-12T23:48:27.589Z,4.30
2022-09-12T23:50:55.995Z,2.20
2022-09-12T23:53:24.718Z,2.07
2022-09-12T23:55:54.115Z,2.20
2022-09-12T23:58:22.841Z,2.10
